sensor_id;sensor_type;location;lat;lon;timestamp;P1;durP1;ratioP1;P2;durP2;ratioP2
64619;SDS011;51029;51.058;13.826;2023-03-19T00:02:13;16.83;;;12.20;;
64619;SDS011;51029;51.058;13.826;2023-03-19T00:04:38;18.20;;;12.20;;
64619;SDS011;51029;51.058;13.826;2023-03-19T00:07:04;17.47;;;11.93;;
64619;SDS011;51029;51.058;13.826;2023-03-19T00:09:29;16.40;;;11.90;;
64619;SDS011;51029;51.058;13.826;2023-03-19T00:11:55;16.20;;;12.03;;
64619;SDS011;51029;51.058;13.826;2023-03-19T00:14:21;16.73;;;12.27;;
64619;SDS011;51029;51.058;13.826;2023-03-19T00:16:47;17.60;;;12.43;;
64619;SDS011;51029;51.058;13.826;2023-03-19T00:19:12;18.03;;;12.43;;
64619;SDS011;51029;51.058;13.826;2023-03-19T00:21:38;15.17;;;12.17;;
64619;SDS011;51029;51.058;13.826;2023-03-19T00:24:04;18.87;;;11.93;;
64619;SDS011;51029;51.058;13.826;2023-03-19T00:26:31;17.77;;;12.73;;
64619;SDS011;51029;51.058;13.826;2023-03-19T00:28:58;16.07;;;12.23;;
64619;SDS011;51029;51.058;13.826;2023-03-19T00:31:25;16.23;;;11.93;;
64619;SDS011;51029;51.058;13.826;2023-03-19T00:33:52;17.53;;;12.77;;
64619;SDS011;51029;51.058;13.826;2023-03-19T00:36:18;21.10;;;15.70;;
64619;SDS011;51029;51.058;13.826;2023-03-19T00:38:44;15.73;;;13.00;;
64619;SDS011;51029;51.058;13.826;2023-03-19T00:41:11;16.73;;;11.77;;
64619;SDS011;51029;51.058;13.826;2023-03-19T00:43:37;16.47;;;12.77;;
64619;SDS011;51029;51.058;13.826;2023-03-19T00:46:03;15.20;;;11.57;;
64619;SDS011;51029;51.058;13.826;2023-03-19T00:48:29;15.87;;;12.33;;
64619;SDS011;51029;51.058;13.826;2023-03-19T00:50:57;17.33;;;12.90;;
64619;SDS011;51029;51.058;13.826;2023-03-19T00:53:29;18.87;;;13.30;;
64619;SDS011;51029;51.058;13.826;2023-03-19T00:55:54;15.27;;;11.80;;
64619;SDS011;51029;51.058;13.826;2023-03-19T00:58:20;15.60;;;12.70;;
64619;SDS011;51029;51.058;13.826;2023-03-19T01:00:46;16.00;;;12.10;;
64619;SDS011;51029;51.058;13.826;2023-03-19T01:03:12;15.47;;;11.70;;
64619;SDS011;51029;51.058;13.826;2023-03-19T01:05:38;18.07;;;12.00;;
64619;SDS011;51029;51.058;13.826;2023-03-19T01:08:04;17.07;;;12.37;;
64619;SDS011;51029;51.058;13.826;2023-03-19T01:10:31;16.40;;;12.20;;
64619;SDS011;51029;51.058;13.826;2023-03-19T01:12:58;18.93;;;12.83;;
64619;SDS011;51029;51.058;13.826;2023-03-19T01:15:23;17.80;;;11.83;;
64619;SDS011;51029;51.058;13.826;2023-03-19T01:17:49;14.57;;;11.50;;
64619;SDS011;51029;51.058;13.826;2023-03-19T01:20:14;17.80;;;12.27;;
64619;SDS011;51029;51.058;13.826;2023-03-19T01:22:43;16.90;;;11.67;;
64619;SDS011;51029;51.058;13.826;2023-03-19T01:25:09;19.20;;;12.80;;
64619;SDS011;51029;51.058;13.826;2023-03-19T01:27:37;17.30;;;12.30;;
64619;SDS011;51029;51.058;13.826;2023-03-19T01:30:03;17.93;;;12.10;;
64619;SDS011;51029;51.058;13.826;2023-03-19T01:32:29;15.57;;;11.70;;
64619;SDS011;51029;51.058;13.826;2023-03-19T01:34:55;18.23;;;13.07;;
64619;SDS011;51029;51.058;13.826;2023-03-19T01:37:21;17.33;;;12.90;;
64619;SDS011;51029;51.058;13.826;2023-03-19T01:39:46;17.27;;;12.20;;
64619;SDS011;51029;51.058;13.826;2023-03-19T01:42:12;19.00;;;12.70;;
64619;SDS011;51029;51.058;13.826;2023-03-19T01:44:38;18.00;;;12.70;;
64619;SDS011;51029;51.058;13.826;2023-03-19T01:47:09;16.40;;;13.13;;
64619;SDS011;51029;51.058;13.826;2023-03-19T01:49:40;16.93;;;12.10;;
64619;SDS011;51029;51.058;13.826;2023-03-19T01:52:06;17.23;;;13.07;;
64619;SDS011;51029;51.058;13.826;2023-03-19T01:54:33;18.23;;;12.73;;
64619;SDS011;51029;51.058;13.826;2023-03-19T01:57:04;16.70;;;12.90;;
64619;SDS011;51029;51.058;13.826;2023-03-19T01:59:37;17.07;;;12.87;;
64619;SDS011;51029;51.058;13.826;2023-03-19T02:02:15;16.13;;;12.10;;
64619;SDS011;51029;51.058;13.826;2023-03-19T02:04:59;16.10;;;12.47;;
64619;SDS011;51029;51.058;13.826;2023-03-19T02:07:31;17.03;;;12.50;;
64619;SDS011;51029;51.058;13.826;2023-03-19T02:09:58;20.27;;;13.00;;
64619;SDS011;51029;51.058;13.826;2023-03-19T02:12:27;15.03;;;12.43;;
64619;SDS011;51029;51.058;13.826;2023-03-19T02:14:53;17.57;;;12.63;;
64619;SDS011;51029;51.058;13.826;2023-03-19T02:17:19;18.50;;;12.57;;
64619;SDS011;51029;51.058;13.826;2023-03-19T02:22:20;16.43;;;12.27;;
64619;SDS011;51029;51.058;13.826;2023-03-19T02:24:52;17.53;;;12.07;;
64619;SDS011;51029;51.058;13.826;2023-03-19T02:27:26;17.17;;;13.33;;
64619;SDS011;51029;51.058;13.826;2023-03-19T02:29:51;16.70;;;13.00;;
64619;SDS011;51029;51.058;13.826;2023-03-19T02:32:17;18.13;;;12.20;;
64619;SDS011;51029;51.058;13.826;2023-03-19T02:34:43;18.27;;;12.50;;
64619;SDS011;51029;51.058;13.826;2023-03-19T02:37:25;17.57;;;12.40;;
64619;SDS011;51029;51.058;13.826;2023-03-19T02:39:56;17.03;;;12.50;;
64619;SDS011;51029;51.058;13.826;2023-03-19T02:42:28;16.63;;;13.43;;
64619;SDS011;51029;51.058;13.826;2023-03-19T02:44:54;18.43;;;12.77;;
64619;SDS011;51029;51.058;13.826;2023-03-19T02:47:20;22.07;;;14.07;;
64619;SDS011;51029;51.058;13.826;2023-03-19T02:49:47;19.03;;;12.90;;
64619;SDS011;51029;51.058;13.826;2023-03-19T02:52:13;16.53;;;12.97;;
64619;SDS011;51029;51.058;13.826;2023-03-19T02:54:39;17.53;;;13.67;;
64619;SDS011;51029;51.058;13.826;2023-03-19T02:57:05;18.53;;;13.20;;
64619;SDS011;51029;51.058;13.826;2023-03-19T02:59:30;18.03;;;13.70;;
64619;SDS011;51029;51.058;13.826;2023-03-19T03:01:56;19.00;;;12.83;;
64619;SDS011;51029;51.058;13.826;2023-03-19T03:04:22;20.87;;;13.90;;
64619;SDS011;51029;51.058;13.826;2023-03-19T03:06:47;18.93;;;13.47;;
64619;SDS011;51029;51.058;13.826;2023-03-19T03:09:13;17.30;;;13.03;;
64619;SDS011;51029;51.058;13.826;2023-03-19T03:11:39;16.77;;;13.20;;
64619;SDS011;51029;51.058;13.826;2023-03-19T03:14:07;17.80;;;13.10;;
64619;SDS011;51029;51.058;13.826;2023-03-19T03:16:33;18.67;;;13.53;;
64619;SDS011;51029;51.058;13.826;2023-03-19T03:18:58;18.40;;;13.43;;
64619;SDS011;51029;51.058;13.826;2023-03-19T03:21:24;16.70;;;12.87;;
64619;SDS011;51029;51.058;13.826;2023-03-19T03:23:50;17.43;;;13.00;;
64619;SDS011;51029;51.058;13.826;2023-03-19T03:26:16;19.33;;;12.90;;
64619;SDS011;51029;51.058;13.826;2023-03-19T03:28:41;16.93;;;12.37;;
64619;SDS011;51029;51.058;13.826;2023-03-19T03:31:07;15.97;;;12.70;;
64619;SDS011;51029;51.058;13.826;2023-03-19T03:33:33;17.13;;;13.00;;
64619;SDS011;51029;51.058;13.826;2023-03-19T03:35:59;15.77;;;12.23;;
64619;SDS011;51029;51.058;13.826;2023-03-19T03:38:25;16.70;;;12.27;;
64619;SDS011;51029;51.058;13.826;2023-03-19T03:40:51;20.03;;;13.30;;
64619;SDS011;51029;51.058;13.826;2023-03-19T03:43:17;18.23;;;12.90;;
64619;SDS011;51029;51.058;13.826;2023-03-19T03:45:44;19.07;;;12.83;;
64619;SDS011;51029;51.058;13.826;2023-03-19T03:48:11;18.87;;;12.33;;
64619;SDS011;51029;51.058;13.826;2023-03-19T03:50:37;19.33;;;13.20;;
64619;SDS011;51029;51.058;13.826;2023-03-19T03:53:03;22.23;;;13.17;;
64619;SDS011;51029;51.058;13.826;2023-03-19T03:55:29;19.40;;;13.10;;
64619;SDS011;51029;51.058;13.826;2023-03-19T03:57:55;17.33;;;12.47;;
64619;SDS011;51029;51.058;13.826;2023-03-19T04:00:21;18.67;;;12.50;;
64619;SDS011;51029;51.058;13.826;2023-03-19T04:02:47;18.40;;;12.67;;
64619;SDS011;51029;51.058;13.826;2023-03-19T04:05:13;20.63;;;12.73;;
64619;SDS011;51029;51.058;13.826;2023-03-19T04:07:39;16.57;;;12.67;;
64619;SDS011;51029;51.058;13.826;2023-03-19T04:10:05;18.13;;;12.47;;
64619;SDS011;51029;51.058;13.826;2023-03-19T04:12:31;15.90;;;12.37;;
64619;SDS011;51029;51.058;13.826;2023-03-19T04:14:58;17.20;;;12.77;;
64619;SDS011;51029;51.058;13.826;2023-03-19T04:17:24;17.03;;;12.87;;
64619;SDS011;51029;51.058;13.826;2023-03-19T04:19:50;16.13;;;11.97;;
64619;SDS011;51029;51.058;13.826;2023-03-19T04:22:15;20.13;;;12.87;;
64619;SDS011;51029;51.058;13.826;2023-03-19T04:24:41;18.33;;;12.37;;
64619;SDS011;51029;51.058;13.826;2023-03-19T04:27:06;19.70;;;12.33;;
64619;SDS011;51029;51.058;13.826;2023-03-19T04:29:32;16.07;;;12.60;;
64619;SDS011;51029;51.058;13.826;2023-03-19T04:31:58;16.50;;;11.70;;
64619;SDS011;51029;51.058;13.826;2023-03-19T04:34:23;15.50;;;12.07;;
64619;SDS011;51029;51.058;13.826;2023-03-19T04:36:49;15.00;;;12.50;;
64619;SDS011;51029;51.058;13.826;2023-03-19T04:39:15;19.13;;;12.23;;
64619;SDS011;51029;51.058;13.826;2023-03-19T04:41:41;17.63;;;11.87;;
64619;SDS011;51029;51.058;13.826;2023-03-19T04:44:07;18.67;;;12.87;;
64619;SDS011;51029;51.058;13.826;2023-03-19T04:46:32;17.67;;;12.17;;
64619;SDS011;51029;51.058;13.826;2023-03-19T04:48:58;16.80;;;11.70;;
64619;SDS011;51029;51.058;13.826;2023-03-19T04:51:24;18.40;;;12.77;;
64619;SDS011;51029;51.058;13.826;2023-03-19T04:53:50;16.97;;;12.10;;
64619;SDS011;51029;51.058;13.826;2023-03-19T04:56:16;15.90;;;11.97;;
64619;SDS011;51029;51.058;13.826;2023-03-19T04:58:42;17.93;;;11.90;;
64619;SDS011;51029;51.058;13.826;2023-03-19T05:01:07;17.20;;;12.13;;
64619;SDS011;51029;51.058;13.826;2023-03-19T05:03:33;21.37;;;12.43;;
64619;SDS011;51029;51.058;13.826;2023-03-19T05:05:59;15.57;;;11.97;;
64619;SDS011;51029;51.058;13.826;2023-03-19T05:08:24;19.97;;;12.37;;
64619;SDS011;51029;51.058;13.826;2023-03-19T05:10:50;16.77;;;12.73;;
64619;SDS011;51029;51.058;13.826;2023-03-19T05:13:16;17.43;;;12.07;;
64619;SDS011;51029;51.058;13.826;2023-03-19T05:15:42;17.10;;;12.57;;
64619;SDS011;51029;51.058;13.826;2023-03-19T05:18:08;17.77;;;12.20;;
64619;SDS011;51029;51.058;13.826;2023-03-19T05:20:34;14.30;;;11.50;;
64619;SDS011;51029;51.058;13.826;2023-03-19T05:23:01;15.40;;;11.80;;
64619;SDS011;51029;51.058;13.826;2023-03-19T05:25:27;16.63;;;12.07;;
64619;SDS011;51029;51.058;13.826;2023-03-19T05:27:53;16.50;;;11.77;;
64619;SDS011;51029;51.058;13.826;2023-03-19T05:30:18;18.53;;;12.40;;
64619;SDS011;51029;51.058;13.826;2023-03-19T05:32:44;17.43;;;12.20;;
64619;SDS011;51029;51.058;13.826;2023-03-19T05:35:10;15.53;;;12.13;;
64619;SDS011;51029;51.058;13.826;2023-03-19T05:37:37;17.67;;;13.13;;
64619;SDS011;51029;51.058;13.826;2023-03-19T05:40:03;15.03;;;12.10;;
64619;SDS011;51029;51.058;13.826;2023-03-19T05:42:29;16.03;;;12.33;;
64619;SDS011;51029;51.058;13.826;2023-03-19T05:44:54;18.70;;;12.30;;
64619;SDS011;51029;51.058;13.826;2023-03-19T05:47:20;19.33;;;11.87;;
64619;SDS011;51029;51.058;13.826;2023-03-19T05:49:46;16.27;;;12.23;;
64619;SDS011;51029;51.058;13.826;2023-03-19T05:52:11;17.97;;;12.33;;
64619;SDS011;51029;51.058;13.826;2023-03-19T05:54:37;16.83;;;11.60;;
64619;SDS011;51029;51.058;13.826;2023-03-19T05:57:02;15.63;;;11.87;;
64619;SDS011;51029;51.058;13.826;2023-03-19T05:59:28;16.73;;;11.97;;
64619;SDS011;51029;51.058;13.826;2023-03-19T06:01:54;18.53;;;12.90;;
64619;SDS011;51029;51.058;13.826;2023-03-19T06:04:19;17.00;;;11.67;;
64619;SDS011;51029;51.058;13.826;2023-03-19T06:06:45;16.50;;;12.37;;
64619;SDS011;51029;51.058;13.826;2023-03-19T06:09:11;17.53;;;11.53;;
64619;SDS011;51029;51.058;13.826;2023-03-19T06:11:37;15.57;;;11.33;;
64619;SDS011;51029;51.058;13.826;2023-03-19T06:14:04;16.07;;;11.40;;
64619;SDS011;51029;51.058;13.826;2023-03-19T06:16:30;17.00;;;11.03;;
64619;SDS011;51029;51.058;13.826;2023-03-19T06:18:56;16.13;;;12.07;;
64619;SDS011;51029;51.058;13.826;2023-03-19T06:21:22;15.30;;;11.57;;
64619;SDS011;51029;51.058;13.826;2023-03-19T06:23:49;17.13;;;12.13;;
64619;SDS011;51029;51.058;13.826;2023-03-19T06:26:15;14.33;;;10.93;;
64619;SDS011;51029;51.058;13.826;2023-03-19T06:28:41;16.90;;;11.03;;
64619;SDS011;51029;51.058;13.826;2023-03-19T06:31:06;16.33;;;11.00;;
64619;SDS011;51029;51.058;13.826;2023-03-19T06:33:32;15.00;;;11.33;;
64619;SDS011;51029;51.058;13.826;2023-03-19T06:35:58;15.70;;;11.50;;
64619;SDS011;51029;51.058;13.826;2023-03-19T06:38:23;15.87;;;11.00;;
64619;SDS011;51029;51.058;13.826;2023-03-19T06:40:49;16.40;;;11.30;;
64619;SDS011;51029;51.058;13.826;2023-03-19T06:43:15;16.20;;;11.43;;
64619;SDS011;51029;51.058;13.826;2023-03-19T06:45:41;14.63;;;10.47;;
64619;SDS011;51029;51.058;13.826;2023-03-19T06:48:06;18.33;;;11.23;;
64619;SDS011;51029;51.058;13.826;2023-03-19T06:50:32;16.07;;;10.67;;
64619;SDS011;51029;51.058;13.826;2023-03-19T06:52:57;17.10;;;11.50;;
64619;SDS011;51029;51.058;13.826;2023-03-19T06:55:23;14.83;;;11.00;;
64619;SDS011;51029;51.058;13.826;2023-03-19T06:57:49;14.77;;;10.80;;
64619;SDS011;51029;51.058;13.826;2023-03-19T07:00:15;14.73;;;10.30;;
64619;SDS011;51029;51.058;13.826;2023-03-19T07:02:42;17.00;;;11.27;;
64619;SDS011;51029;51.058;13.826;2023-03-19T07:05:08;16.00;;;11.10;;
64619;SDS011;51029;51.058;13.826;2023-03-19T07:07:34;15.70;;;11.20;;
64619;SDS011;51029;51.058;13.826;2023-03-19T07:10:00;15.20;;;10.90;;
64619;SDS011;51029;51.058;13.826;2023-03-19T07:12:25;14.63;;;11.37;;
64619;SDS011;51029;51.058;13.826;2023-03-19T07:14:52;14.50;;;10.70;;
64619;SDS011;51029;51.058;13.826;2023-03-19T07:17:20;15.70;;;11.73;;
64619;SDS011;51029;51.058;13.826;2023-03-19T07:19:46;13.93;;;10.60;;
64619;SDS011;51029;51.058;13.826;2023-03-19T07:22:11;13.37;;;10.40;;
64619;SDS011;51029;51.058;13.826;2023-03-19T07:24:37;13.63;;;10.57;;
64619;SDS011;51029;51.058;13.826;2023-03-19T07:27:02;16.27;;;10.50;;
64619;SDS011;51029;51.058;13.826;2023-03-19T07:29:28;14.70;;;11.23;;
64619;SDS011;51029;51.058;13.826;2023-03-19T07:31:53;14.87;;;11.83;;
64619;SDS011;51029;51.058;13.826;2023-03-19T07:34:19;14.10;;;11.10;;
64619;SDS011;51029;51.058;13.826;2023-03-19T07:36:44;18.10;;;12.37;;
64619;SDS011;51029;51.058;13.826;2023-03-19T07:39:11;14.93;;;11.43;;
64619;SDS011;51029;51.058;13.826;2023-03-19T07:41:37;16.17;;;11.77;;
64619;SDS011;51029;51.058;13.826;2023-03-19T07:44:02;14.07;;;11.43;;
64619;SDS011;51029;51.058;13.826;2023-03-19T07:46:28;15.47;;;12.40;;
64619;SDS011;51029;51.058;13.826;2023-03-19T07:48:53;13.93;;;11.20;;
64619;SDS011;51029;51.058;13.826;2023-03-19T07:51:19;14.73;;;11.10;;
64619;SDS011;51029;51.058;13.826;2023-03-19T07:53:45;16.60;;;11.17;;
64619;SDS011;51029;51.058;13.826;2023-03-19T07:56:11;14.50;;;11.27;;
64619;SDS011;51029;51.058;13.826;2023-03-19T07:58:37;12.20;;;10.60;;
64619;SDS011;51029;51.058;13.826;2023-03-19T08:01:02;15.07;;;11.73;;
64619;SDS011;51029;51.058;13.826;2023-03-19T08:03:28;13.23;;;10.73;;
64619;SDS011;51029;51.058;13.826;2023-03-19T08:05:54;15.07;;;11.03;;
64619;SDS011;51029;51.058;13.826;2023-03-19T08:08:19;14.17;;;10.90;;
64619;SDS011;51029;51.058;13.826;2023-03-19T08:10:45;15.63;;;11.00;;
64619;SDS011;51029;51.058;13.826;2023-03-19T08:13:12;13.50;;;10.27;;
64619;SDS011;51029;51.058;13.826;2023-03-19T08:15:38;15.83;;;11.47;;
64619;SDS011;51029;51.058;13.826;2023-03-19T08:18:04;15.87;;;11.33;;
64619;SDS011;51029;51.058;13.826;2023-03-19T08:20:30;13.03;;;10.57;;
64619;SDS011;51029;51.058;13.826;2023-03-19T08:22:56;13.10;;;10.13;;
64619;SDS011;51029;51.058;13.826;2023-03-19T08:25:22;15.13;;;10.87;;
64619;SDS011;51029;51.058;13.826;2023-03-19T08:27:48;14.77;;;11.17;;
64619;SDS011;51029;51.058;13.826;2023-03-19T08:30:14;15.10;;;10.47;;
64619;SDS011;51029;51.058;13.826;2023-03-19T08:32:40;16.00;;;10.93;;
64619;SDS011;51029;51.058;13.826;2023-03-19T08:35:08;15.07;;;10.77;;
64619;SDS011;51029;51.058;13.826;2023-03-19T08:37:34;17.67;;;10.80;;
64619;SDS011;51029;51.058;13.826;2023-03-19T08:40:00;15.53;;;11.30;;
64619;SDS011;51029;51.058;13.826;2023-03-19T08:42:25;13.33;;;11.00;;
64619;SDS011;51029;51.058;13.826;2023-03-19T08:44:51;14.37;;;10.40;;
64619;SDS011;51029;51.058;13.826;2023-03-19T08:47:17;14.90;;;10.77;;
64619;SDS011;51029;51.058;13.826;2023-03-19T08:49:42;12.77;;;10.83;;
64619;SDS011;51029;51.058;13.826;2023-03-19T08:52:08;15.40;;;11.60;;
64619;SDS011;51029;51.058;13.826;2023-03-19T08:54:34;15.23;;;10.60;;
64619;SDS011;51029;51.058;13.826;2023-03-19T08:57:00;14.50;;;10.93;;
64619;SDS011;51029;51.058;13.826;2023-03-19T08:59:26;14.13;;;11.43;;
64619;SDS011;51029;51.058;13.826;2023-03-19T09:01:52;15.23;;;10.60;;
64619;SDS011;51029;51.058;13.826;2023-03-19T09:04:19;15.10;;;10.67;;
64619;SDS011;51029;51.058;13.826;2023-03-19T09:06:45;14.50;;;10.63;;
64619;SDS011;51029;51.058;13.826;2023-03-19T09:09:10;15.27;;;10.60;;
64619;SDS011;51029;51.058;13.826;2023-03-19T09:11:36;14.23;;;10.40;;
64619;SDS011;51029;51.058;13.826;2023-03-19T09:14:01;14.13;;;10.30;;
64619;SDS011;51029;51.058;13.826;2023-03-19T09:16:27;12.20;;;10.60;;
64619;SDS011;51029;51.058;13.826;2023-03-19T09:18:54;12.50;;;10.67;;
64619;SDS011;51029;51.058;13.826;2023-03-19T09:21:19;15.37;;;11.00;;
64619;SDS011;51029;51.058;13.826;2023-03-19T09:23:45;13.87;;;10.90;;
64619;SDS011;51029;51.058;13.826;2023-03-19T09:26:11;13.43;;;10.90;;
64619;SDS011;51029;51.058;13.826;2023-03-19T09:28:36;14.00;;;11.07;;
64619;SDS011;51029;51.058;13.826;2023-03-19T09:31:02;14.43;;;11.17;;
64619;SDS011;51029;51.058;13.826;2023-03-19T09:33:31;13.67;;;11.03;;
64619;SDS011;51029;51.058;13.826;2023-03-19T09:35:57;13.67;;;10.70;;
64619;SDS011;51029;51.058;13.826;2023-03-19T09:38:22;15.43;;;10.90;;
64619;SDS011;51029;51.058;13.826;2023-03-19T09:40:51;15.00;;;10.37;;
64619;SDS011;51029;51.058;13.826;2023-03-19T09:46:22;13.33;;;10.90;;
64619;SDS011;51029;51.058;13.826;2023-03-19T09:48:57;13.23;;;10.33;;
64619;SDS011;51029;51.058;13.826;2023-03-19T09:51:38;23.33;;;11.40;;
64619;SDS011;51029;51.058;13.826;2023-03-19T09:54:30;13.77;;;10.63;;
64619;SDS011;51029;51.058;13.826;2023-03-19T09:56:59;14.73;;;11.63;;
64619;SDS011;51029;51.058;13.826;2023-03-19T09:59:25;14.27;;;10.77;;
64619;SDS011;51029;51.058;13.826;2023-03-19T10:01:55;16.97;;;10.90;;
64619;SDS011;51029;51.058;13.826;2023-03-19T10:07:20;15.20;;;11.13;;
64619;SDS011;51029;51.058;13.826;2023-03-19T10:13:01;13.30;;;11.03;;
64619;SDS011;51029;51.058;13.826;2023-03-19T10:15:41;15.63;;;10.50;;
64619;SDS011;51029;51.058;13.826;2023-03-19T10:18:10;14.53;;;11.17;;
64619;SDS011;51029;51.058;13.826;2023-03-19T10:20:51;13.30;;;10.93;;
64619;SDS011;51029;51.058;13.826;2023-03-19T10:23:23;12.03;;;10.63;;
64619;SDS011;51029;51.058;13.826;2023-03-19T10:25:57;13.33;;;11.00;;
64619;SDS011;51029;51.058;13.826;2023-03-19T10:28:26;14.67;;;11.80;;
64619;SDS011;51029;51.058;13.826;2023-03-19T10:33:23;13.17;;;11.37;;
64619;SDS011;51029;51.058;13.826;2023-03-19T10:35:57;13.70;;;11.60;;
64619;SDS011;51029;51.058;13.826;2023-03-19T10:38:28;13.60;;;11.77;;
64619;SDS011;51029;51.058;13.826;2023-03-19T10:41:15;14.20;;;12.13;;
64619;SDS011;51029;51.058;13.826;2023-03-19T10:44:03;13.73;;;11.37;;
64619;SDS011;51029;51.058;13.826;2023-03-19T10:46:40;13.90;;;10.57;;
64619;SDS011;51029;51.058;13.826;2023-03-19T10:49:11;15.50;;;10.97;;
64619;SDS011;51029;51.058;13.826;2023-03-19T10:51:38;14.43;;;11.90;;
64619;SDS011;51029;51.058;13.826;2023-03-19T10:54:17;15.53;;;11.40;;
64619;SDS011;51029;51.058;13.826;2023-03-19T10:56:48;13.37;;;10.80;;
64619;SDS011;51029;51.058;13.826;2023-03-19T10:59:48;12.17;;;10.33;;
64619;SDS011;51029;51.058;13.826;2023-03-19T11:02:18;16.03;;;10.60;;
64619;SDS011;51029;51.058;13.826;2023-03-19T11:04:46;15.63;;;10.93;;
64619;SDS011;51029;51.058;13.826;2023-03-19T11:07:12;15.27;;;11.10;;
64619;SDS011;51029;51.058;13.826;2023-03-19T11:09:44;14.63;;;11.83;;
64619;SDS011;51029;51.058;13.826;2023-03-19T11:14:46;13.30;;;10.57;;
64619;SDS011;51029;51.058;13.826;2023-03-19T11:19:49;13.33;;;10.70;;
64619;SDS011;51029;51.058;13.826;2023-03-19T11:22:23;13.50;;;11.00;;
64619;SDS011;51029;51.058;13.826;2023-03-19T11:24:51;13.90;;;10.93;;
64619;SDS011;51029;51.058;13.826;2023-03-19T11:27:25;15.20;;;11.70;;
64619;SDS011;51029;51.058;13.826;2023-03-19T11:30:00;15.77;;;11.47;;
64619;SDS011;51029;51.058;13.826;2023-03-19T11:35:27;13.77;;;11.10;;
64619;SDS011;51029;51.058;13.826;2023-03-19T11:38:01;13.10;;;10.40;;
64619;SDS011;51029;51.058;13.826;2023-03-19T11:48:58;13.93;;;10.00;;
64619;SDS011;51029;51.058;13.826;2023-03-19T11:54:35;14.43;;;10.03;;
64619;SDS011;51029;51.058;13.826;2023-03-19T12:00:31;12.60;;;9.97;;
64619;SDS011;51029;51.058;13.826;2023-03-19T12:05:59;16.33;;;13.33;;
64619;SDS011;51029;51.058;13.826;2023-03-19T12:08:38;13.93;;;10.50;;
64619;SDS011;51029;51.058;13.826;2023-03-19T12:11:52;11.33;;;9.37;;
64619;SDS011;51029;51.058;13.826;2023-03-19T12:16:53;13.33;;;10.80;;
64619;SDS011;51029;51.058;13.826;2023-03-19T12:19:53;15.37;;;11.10;;
64619;SDS011;51029;51.058;13.826;2023-03-19T12:35:56;12.77;;;11.33;;
64619;SDS011;51029;51.058;13.826;2023-03-19T12:38:30;13.80;;;10.53;;
64619;SDS011;51029;51.058;13.826;2023-03-19T12:40:59;13.27;;;10.60;;
64619;SDS011;51029;51.058;13.826;2023-03-19T12:43:46;14.57;;;10.40;;
64619;SDS011;51029;51.058;13.826;2023-03-19T12:51:54;12.80;;;10.17;;
64619;SDS011;51029;51.058;13.826;2023-03-19T12:54:26;14.17;;;9.97;;
64619;SDS011;51029;51.058;13.826;2023-03-19T12:56:59;12.33;;;10.00;;
64619;SDS011;51029;51.058;13.826;2023-03-19T12:59:49;13.40;;;10.77;;
64619;SDS011;51029;51.058;13.826;2023-03-19T13:10:49;13.77;;;10.13;;
64619;SDS011;51029;51.058;13.826;2023-03-19T13:13:24;13.27;;;10.43;;
64619;SDS011;51029;51.058;13.826;2023-03-19T13:16:22;14.20;;;10.27;;
64619;SDS011;51029;51.058;13.826;2023-03-19T13:21:39;17.07;;;10.60;;
64619;SDS011;51029;51.058;13.826;2023-03-19T13:24:24;16.30;;;10.50;;
64619;SDS011;51029;51.058;13.826;2023-03-19T13:26:56;14.53;;;10.53;;
64619;SDS011;51029;51.058;13.826;2023-03-19T13:29:24;15.00;;;10.67;;
64619;SDS011;51029;51.058;13.826;2023-03-19T13:31:51;14.00;;;10.47;;
64619;SDS011;51029;51.058;13.826;2023-03-19T13:34:24;12.00;;;9.70;;
64619;SDS011;51029;51.058;13.826;2023-03-19T13:39:39;15.90;;;10.77;;
64619;SDS011;51029;51.058;13.826;2023-03-19T13:48:21;14.37;;;10.30;;
64619;SDS011;51029;51.058;13.826;2023-03-19T13:51:33;14.97;;;11.27;;
64619;SDS011;51029;51.058;13.826;2023-03-19T14:02:01;15.13;;;10.77;;
64619;SDS011;51029;51.058;13.826;2023-03-19T14:04:57;14.53;;;10.63;;
64619;SDS011;51029;51.058;13.826;2023-03-19T14:07:28;14.83;;;10.60;;
64619;SDS011;51029;51.058;13.826;2023-03-19T14:10:21;16.17;;;10.53;;
64619;SDS011;51029;51.058;13.826;2023-03-19T14:12:49;15.67;;;10.87;;
64619;SDS011;51029;51.058;13.826;2023-03-19T14:15:17;15.20;;;10.87;;
64619;SDS011;51029;51.058;13.826;2023-03-19T14:23:38;15.87;;;10.97;;
64619;SDS011;51029;51.058;13.826;2023-03-19T14:28:44;15.70;;;10.50;;
64619;SDS011;51029;51.058;13.826;2023-03-19T14:33:58;14.30;;;10.40;;
64619;SDS011;51029;51.058;13.826;2023-03-19T14:36:28;13.97;;;10.40;;
64619;SDS011;51029;51.058;13.826;2023-03-19T14:38:59;16.17;;;11.93;;
64619;SDS011;51029;51.058;13.826;2023-03-19T14:41:32;11.93;;;10.10;;
64619;SDS011;51029;51.058;13.826;2023-03-19T14:50:16;15.17;;;10.50;;
64619;SDS011;51029;51.058;13.826;2023-03-19T14:53:10;13.73;;;10.20;;
64619;SDS011;51029;51.058;13.826;2023-03-19T14:55:42;14.30;;;10.33;;
64619;SDS011;51029;51.058;13.826;2023-03-19T14:58:13;12.83;;;11.00;;
64619;SDS011;51029;51.058;13.826;2023-03-19T15:00:43;13.37;;;9.87;;
64619;SDS011;51029;51.058;13.826;2023-03-19T15:03:33;16.80;;;11.03;;
64619;SDS011;51029;51.058;13.826;2023-03-19T15:06:04;15.33;;;10.53;;
64619;SDS011;51029;51.058;13.826;2023-03-19T15:08:32;12.97;;;9.67;;
64619;SDS011;51029;51.058;13.826;2023-03-19T15:18:58;15.07;;;10.30;;
64619;SDS011;51029;51.058;13.826;2023-03-19T15:21:24;14.83;;;10.20;;
64619;SDS011;51029;51.058;13.826;2023-03-19T15:23:53;13.67;;;10.60;;
64619;SDS011;51029;51.058;13.826;2023-03-19T15:26:29;16.00;;;10.83;;
64619;SDS011;51029;51.058;13.826;2023-03-19T15:28:56;17.70;;;11.33;;
64619;SDS011;51029;51.058;13.826;2023-03-19T15:31:22;14.07;;;10.97;;
64619;SDS011;51029;51.058;13.826;2023-03-19T15:33:47;16.43;;;11.17;;
64619;SDS011;51029;51.058;13.826;2023-03-19T15:38:47;14.07;;;11.20;;
64619;SDS011;51029;51.058;13.826;2023-03-19T15:41:18;16.10;;;10.53;;
64619;SDS011;51029;51.058;13.826;2023-03-19T15:43:45;17.10;;;11.20;;
64619;SDS011;51029;51.058;13.826;2023-03-19T15:46:15;17.87;;;11.00;;
64619;SDS011;51029;51.058;13.826;2023-03-19T15:48:52;17.17;;;11.77;;
64619;SDS011;51029;51.058;13.826;2023-03-19T15:51:27;17.07;;;11.33;;
64619;SDS011;51029;51.058;13.826;2023-03-19T15:53:53;14.67;;;11.80;;
64619;SDS011;51029;51.058;13.826;2023-03-19T15:56:19;13.93;;;11.23;;
64619;SDS011;51029;51.058;13.826;2023-03-19T15:58:47;15.33;;;10.80;;
64619;SDS011;51029;51.058;13.826;2023-03-19T16:01:15;15.10;;;10.63;;
64619;SDS011;51029;51.058;13.826;2023-03-19T16:03:43;15.63;;;11.50;;
64619;SDS011;51029;51.058;13.826;2023-03-19T16:06:18;15.50;;;11.97;;
64619;SDS011;51029;51.058;13.826;2023-03-19T16:08:46;16.67;;;11.60;;
64619;SDS011;51029;51.058;13.826;2023-03-19T16:11:14;13.03;;;10.50;;
64619;SDS011;51029;51.058;13.826;2023-03-19T16:13:51;12.60;;;10.30;;
64619;SDS011;51029;51.058;13.826;2023-03-19T16:16:21;10.43;;;7.60;;